Terminal Aerodrome Forecast
Issued by NWS Wakefield, VA

Home | Current Version | Previous Version | Text Only | Print | Product List | Glossary On
Versions: 1 2 3 4 5 6 7 8 9 10 11 12 13 14 15 16
000
FTUS41 KAKQ 272339
TAFORF
TAF
KORF 272339Z 2800/2824 20013KT P6SM SCT100 BKN250
     FM280900 20007KT P6SM SCT025 BKN100
     FM281400 21009KT P6SM BKN050=

USA.gov is the U.S. government's official web portal to all federal, state and local government web resources and services.